TVS56K LTAI-LKTB
Flight info
| Callsign | TVS56K |
|---|---|
| Flight time | 2h 36m |
| Altitude | 38000 |
| Route | EKNUD1K/18L EKNUD UQ26 BKZ DCT IBLAX DCT RASUB DCT ZURFA DCT TEKVI DCT ABITU P41 MAVOR |
| Aircraft | B738/M-SDE3FGHIJ1RWXY/LB1 |
Departure
| Time | 2026-04-26 14:22 |
|---|---|
| Airport | Antalya International Airport (LTAI) |
Arrival
| Time | 2026-04-26 16:59 |
|---|---|
| Airport | Brno-Tuřany Airport (LKTB) |
| Time | Latitude | Longitude | Altitude | Speed | Heading |
|---|---|---|---|---|---|
| 2026-04-26 13:36 | 36.91631 | 30.80145 | 190 ft | 0 kts | 187° |
| 2026-04-26 14:09 | 36.91640 | 30.80147 | 206 ft | 4 kts | 185° |
| 2026-04-26 14:09 | 36.91667 | 30.80151 | 204 ft | 4 kts | 194° |
| 2026-04-26 14:10 | 36.91692 | 30.80163 | 198 ft | 4 kts | 206° |
| 2026-04-26 14:10 | 36.91701 | 30.80168 | 206 ft | 1 kts | 206° |
| 2026-04-26 14:14 | 36.91697 | 30.80159 | 199 ft | 4 kts | 239° |
| 2026-04-26 14:14 | 36.91697 | 30.80083 | 197 ft | 12 kts | 277° |
| 2026-04-26 14:14 | 36.91708 | 30.79982 | 196 ft | 11 kts | 269° |
| 2026-04-26 14:14 | 36.91646 | 30.79943 | 190 ft | 11 kts | 187° |
| 2026-04-26 14:15 | 36.91570 | 30.79932 | 190 ft | 12 kts | 187° |
| 2026-04-26 14:15 | 36.91467 | 30.79916 | 202 ft | 17 kts | 186° |
| 2026-04-26 14:15 | 36.91338 | 30.79899 | 196 ft | 19 kts | 186° |
| 2026-04-26 14:15 | 36.91212 | 30.79883 | 203 ft | 18 kts | 186° |
| 2026-04-26 14:16 | 36.91089 | 30.79865 | 194 ft | 18 kts | 186° |
| 2026-04-26 14:16 | 36.90970 | 30.79848 | 193 ft | 17 kts | 186° |
| 2026-04-26 14:16 | 36.90900 | 30.79795 | 194 ft | 12 kts | 240° |
| 2026-04-26 14:16 | 36.90807 | 30.79737 | 198 ft | 20 kts | 185° |
| 2026-04-26 14:17 | 36.90657 | 30.79717 | 197 ft | 22 kts | 186° |
| 2026-04-26 14:17 | 36.90507 | 30.79696 | 194 ft | 21 kts | 186° |
| 2026-04-26 14:17 | 36.90399 | 30.79774 | 191 ft | 20 kts | 102° |
| 2026-04-26 14:17 | 36.90383 | 30.79947 | 204 ft | 20 kts | 96° |
| 2026-04-26 14:18 | 36.90368 | 30.80115 | 195 ft | 19 kts | 96° |
| 2026-04-26 14:18 | 36.90353 | 30.80276 | 200 ft | 18 kts | 96° |
| 2026-04-26 14:18 | 36.90339 | 30.80433 | 204 ft | 18 kts | 96° |
| 2026-04-26 14:18 | 36.90326 | 30.80584 | 202 ft | 17 kts | 96° |
| 2026-04-26 14:19 | 36.90316 | 30.80730 | 191 ft | 17 kts | 84° |
| 2026-04-26 14:19 | 36.90404 | 30.80806 | 196 ft | 19 kts | 6° |
| 2026-04-26 14:19 | 36.90556 | 30.80827 | 197 ft | 25 kts | 6° |
| 2026-04-26 14:19 | 36.90722 | 30.80850 | 198 ft | 23 kts | 6° |
| 2026-04-26 14:20 | 36.90848 | 30.80866 | 195 ft | 12 kts | 6° |
| 2026-04-26 14:20 | 36.90930 | 30.80877 | 194 ft | 12 kts | 6° |
| 2026-04-26 14:20 | 36.90987 | 30.80928 | 201 ft | 11 kts | 81° |
| 2026-04-26 14:20 | 36.90980 | 30.81025 | 194 ft | 12 kts | 96° |
| 2026-04-26 14:21 | 36.90974 | 30.81107 | 203 ft | 6 kts | 99° |
| 2026-04-26 14:21 | 36.90951 | 30.81117 | 194 ft | 1 kts | 186° |
| 2026-04-26 14:21 | 36.90885 | 30.81108 | 194 ft | 38 kts | 186° |
| 2026-04-26 14:22 | 36.90363 | 30.81037 | 195 ft | 109 kts | 186° |
| 2026-04-26 14:22 | 36.89424 | 30.80904 | 242 ft | 156 kts | 186° |
| 2026-04-26 14:22 | 36.88362 | 30.80777 | 984 ft | 149 kts | 182° |
| 2026-04-26 14:22 | 36.87333 | 30.80875 | 1688 ft | 155 kts | 171° |
| 2026-04-26 14:23 | 36.86165 | 30.81096 | 2244 ft | 182 kts | 170° |
| 2026-04-26 14:23 | 36.84875 | 30.81353 | 2785 ft | 207 kts | 170° |
| 2026-04-26 14:23 | 36.83407 | 30.81623 | 3482 ft | 216 kts | 171° |
| 2026-04-26 14:23 | 36.81911 | 30.81898 | 4381 ft | 218 kts | 169° |
| 2026-04-26 14:24 | 36.80391 | 30.82181 | 5150 ft | 224 kts | 169° |
| 2026-04-26 14:24 | 36.78877 | 30.82737 | 5776 ft | 238 kts | 155° |
| 2026-04-26 14:24 | 36.77285 | 30.83680 | 6116 ft | 264 kts | 152° |
| 2026-04-26 14:24 | 36.75716 | 30.84913 | 6861 ft | 270 kts | 132° |
| 2026-04-26 14:25 | 36.74854 | 30.86961 | 7788 ft | 270 kts | 102° |
| 2026-04-26 14:25 | 36.74855 | 30.89266 | 8720 ft | 274 kts | 78° |
| 2026-04-26 14:25 | 36.75681 | 30.91462 | 9675 ft | 282 kts | 53° |
| 2026-04-26 14:25 | 36.77208 | 30.93038 | 10477 ft | 295 kts | 28° |
| 2026-04-26 14:26 | 36.79252 | 30.93802 | 10785 ft | 325 kts | 8° |
| 2026-04-26 14:26 | 36.81588 | 30.93853 | 11309 ft | 342 kts | 358° |
| 2026-04-26 14:26 | 36.83963 | 30.93607 | 12074 ft | 350 kts | 355° |
| 2026-04-26 14:26 | 36.86390 | 30.93282 | 13049 ft | 352 kts | 355° |
| 2026-04-26 14:27 | 36.88836 | 30.92954 | 14025 ft | 355 kts | 355° |
| 2026-04-26 14:27 | 36.91313 | 30.92649 | 14923 ft | 359 kts | 356° |
| 2026-04-26 14:27 | 36.93810 | 30.92364 | 15772 ft | 364 kts | 356° |
| 2026-04-26 14:27 | 36.96359 | 30.92092 | 16681 ft | 369 kts | 357° |
| 2026-04-26 14:28 | 36.98930 | 30.91831 | 17572 ft | 373 kts | 357° |
| 2026-04-26 14:28 | 37.01531 | 30.91576 | 18432 ft | 377 kts | 357° |
| 2026-04-26 14:28 | 37.04156 | 30.91325 | 19167 ft | 381 kts | 357° |
| 2026-04-26 14:28 | 37.06820 | 30.91074 | 19922 ft | 386 kts | 358° |
| 2026-04-26 14:29 | 37.09516 | 30.90822 | 20655 ft | 390 kts | 357° |
| 2026-04-26 14:29 | 37.12233 | 30.90567 | 21394 ft | 394 kts | 358° |
| 2026-04-26 14:29 | 37.14987 | 30.90310 | 22125 ft | 398 kts | 357° |
| 2026-04-26 14:29 | 37.17764 | 30.90050 | 22805 ft | 403 kts | 357° |
| 2026-04-26 14:30 | 37.20581 | 30.89786 | 23486 ft | 408 kts | 357° |
| 2026-04-26 14:30 | 37.23431 | 30.89518 | 24032 ft | 412 kts | 357° |
| 2026-04-26 14:30 | 37.26299 | 30.89247 | 24603 ft | 415 kts | 357° |
| 2026-04-26 14:30 | 37.29195 | 30.88973 | 25183 ft | 419 kts | 357° |
| 2026-04-26 14:31 | 37.32109 | 30.88699 | 25761 ft | 422 kts | 357° |
| 2026-04-26 14:31 | 37.35045 | 30.88422 | 26282 ft | 425 kts | 357° |
| 2026-04-26 14:31 | 37.38005 | 30.88144 | 26811 ft | 428 kts | 357° |
| 2026-04-26 14:31 | 37.40986 | 30.87865 | 27319 ft | 431 kts | 357° |
| 2026-04-26 14:32 | 37.43984 | 30.87582 | 27813 ft | 434 kts | 357° |
| 2026-04-26 14:32 | 37.47000 | 30.87296 | 28312 ft | 437 kts | 357° |
| 2026-04-26 14:32 | 37.50046 | 30.87008 | 28791 ft | 440 kts | 357° |
| 2026-04-26 14:32 | 37.53106 | 30.86717 | 29262 ft | 443 kts | 357° |
| 2026-04-26 14:33 | 37.56191 | 30.86424 | 29710 ft | 446 kts | 357° |
| 2026-04-26 14:33 | 37.59295 | 30.86129 | 30094 ft | 450 kts | 357° |
| 2026-04-26 14:33 | 37.62425 | 30.85831 | 30459 ft | 452 kts | 357° |
| 2026-04-26 14:33 | 37.65567 | 30.85532 | 30901 ft | 452 kts | 357° |
| 2026-04-26 14:34 | 37.68700 | 30.85233 | 31384 ft | 451 kts | 356° |
| 2026-04-26 14:34 | 37.71826 | 30.84935 | 31954 ft | 448 kts | 356° |
| 2026-04-26 14:34 | 37.73877 | 30.84739 | 32365 ft | 445 kts | 356° |
| 2026-04-26 14:34 | 37.76991 | 30.84442 | 32965 ft | 441 kts | 357° |
| 2026-04-26 14:35 | 37.80000 | 30.84155 | 33518 ft | 439 kts | 357° |
| 2026-04-26 14:35 | 37.83080 | 30.83861 | 34044 ft | 436 kts | 357° |
| 2026-04-26 14:35 | 37.86064 | 30.83575 | 34429 ft | 436 kts | 356° |
| 2026-04-26 14:35 | 37.89096 | 30.83286 | 34719 ft | 438 kts | 356° |
| 2026-04-26 14:36 | 37.92142 | 30.82994 | 35012 ft | 439 kts | 356° |
| 2026-04-26 14:36 | 37.95183 | 30.82703 | 35359 ft | 439 kts | 356° |
| 2026-04-26 14:36 | 37.98231 | 30.82411 | 35721 ft | 439 kts | 356° |
| 2026-04-26 14:36 | 38.01278 | 30.82118 | 36033 ft | 439 kts | 356° |
| 2026-04-26 14:37 | 38.04322 | 30.81826 | 36365 ft | 439 kts | 356° |
| 2026-04-26 14:37 | 38.07370 | 30.81533 | 36718 ft | 439 kts | 355° |
| 2026-04-26 14:37 | 38.10421 | 30.81239 | 37065 ft | 439 kts | 355° |
| 2026-04-26 14:37 | 38.13464 | 30.80934 | 37426 ft | 439 kts | 354° |
| 2026-04-26 14:38 | 38.16495 | 30.80514 | 37732 ft | 439 kts | 352° |
| 2026-04-26 14:38 | 38.19530 | 30.80013 | 37975 ft | 440 kts | 352° |
| 2026-04-26 14:38 | 38.22575 | 30.79482 | 38000 ft | 443 kts | 351° |
| 2026-04-26 14:39 | 38.28668 | 30.78423 | 38008 ft | 440 kts | 352° |
| 2026-04-26 14:39 | 38.34711 | 30.77406 | 38007 ft | 437 kts | 352° |
| 2026-04-26 14:40 | 38.40731 | 30.76408 | 37997 ft | 435 kts | 352° |
| 2026-04-26 14:40 | 38.46726 | 30.75416 | 38004 ft | 434 kts | 352° |
| 2026-04-26 14:41 | 38.52706 | 30.74424 | 38003 ft | 433 kts | 352° |
| 2026-04-26 14:41 | 38.58684 | 30.73430 | 38003 ft | 434 kts | 352° |
| 2026-04-26 14:42 | 38.64674 | 30.72432 | 38005 ft | 435 kts | 352° |
| 2026-04-26 14:42 | 38.70680 | 30.71430 | 38002 ft | 435 kts | 352° |
| 2026-04-26 14:43 | 38.76651 | 30.70432 | 37998 ft | 435 kts | 352° |
| 2026-04-26 14:43 | 38.82698 | 30.69408 | 37998 ft | 435 kts | 350° |
| 2026-04-26 14:44 | 38.88403 | 30.67083 | 37993 ft | 435 kts | 334° |
| 2026-04-26 14:44 | 38.93797 | 30.63542 | 37991 ft | 435 kts | 333° |
| 2026-04-26 14:45 | 38.99162 | 30.59963 | 37996 ft | 434 kts | 333° |
| 2026-04-26 14:45 | 39.04536 | 30.56425 | 37986 ft | 433 kts | 333° |
| 2026-04-26 14:46 | 39.09909 | 30.52911 | 37990 ft | 433 kts | 333° |
| 2026-04-26 14:46 | 39.15269 | 30.49407 | 37996 ft | 432 kts | 333° |
| 2026-04-26 14:47 | 39.20626 | 30.45897 | 37990 ft | 431 kts | 333° |
| 2026-04-26 14:47 | 39.25963 | 30.42393 | 37994 ft | 431 kts | 333° |
| 2026-04-26 14:48 | 39.31303 | 30.38881 | 37990 ft | 430 kts | 333° |
| 2026-04-26 14:48 | 39.36621 | 30.35377 | 37986 ft | 429 kts | 333° |
| 2026-04-26 14:49 | 39.41939 | 30.31867 | 37987 ft | 429 kts | 333° |
| 2026-04-26 14:49 | 39.47250 | 30.28357 | 37989 ft | 428 kts | 333° |
| 2026-04-26 14:50 | 39.52616 | 30.25019 | 37978 ft | 428 kts | 337° |
| 2026-04-26 14:50 | 39.58129 | 30.22117 | 37981 ft | 427 kts | 338° |
| 2026-04-26 14:51 | 39.63645 | 30.19253 | 37989 ft | 427 kts | 338° |
| 2026-04-26 14:51 | 39.69102 | 30.16363 | 37978 ft | 426 kts | 338° |
| 2026-04-26 14:52 | 39.74578 | 30.13433 | 37978 ft | 425 kts | 338° |
| 2026-04-26 14:52 | 39.80040 | 30.10500 | 37982 ft | 424 kts | 337° |
| 2026-04-26 14:53 | 39.85492 | 30.07570 | 37964 ft | 424 kts | 337° |
| 2026-04-26 14:53 | 39.90938 | 30.04639 | 37970 ft | 422 kts | 337° |
| 2026-04-26 14:54 | 39.96369 | 30.01711 | 37966 ft | 422 kts | 337° |
| 2026-04-26 14:54 | 40.01783 | 29.98785 | 37961 ft | 421 kts | 337° |
| 2026-04-26 14:55 | 40.07189 | 29.95856 | 37968 ft | 420 kts | 337° |
| 2026-04-26 14:55 | 40.12584 | 29.92927 | 37959 ft | 420 kts | 337° |
| 2026-04-26 14:56 | 40.17986 | 29.89990 | 37948 ft | 420 kts | 337° |
| 2026-04-26 14:56 | 40.23378 | 29.87053 | 37947 ft | 420 kts | 336° |
| 2026-04-26 14:57 | 40.28767 | 29.84113 | 37949 ft | 419 kts | 336° |
| 2026-04-26 14:57 | 40.34144 | 29.81174 | 37943 ft | 419 kts | 336° |
| 2026-04-26 14:58 | 40.39519 | 29.78231 | 37948 ft | 418 kts | 336° |
| 2026-04-26 14:58 | 40.44895 | 29.75283 | 37942 ft | 418 kts | 336° |
| 2026-04-26 14:59 | 40.50256 | 29.72337 | 37950 ft | 418 kts | 336° |
| 2026-04-26 14:59 | 40.54718 | 29.69882 | 37950 ft | 418 kts | 336° |
| 2026-04-26 15:00 | 40.56272 | 29.69025 | 37944 ft | 418 kts | 336° |
| 2026-04-26 15:00 | 40.61618 | 29.66077 | 37960 ft | 418 kts | 336° |
| 2026-04-26 15:01 | 40.66850 | 29.62804 | 37973 ft | 416 kts | 326° |
| 2026-04-26 15:01 | 40.71426 | 29.58156 | 37960 ft | 415 kts | 320° |
| 2026-04-26 15:02 | 40.75907 | 29.53357 | 37966 ft | 415 kts | 320° |
| 2026-04-26 15:02 | 40.80403 | 29.48577 | 37966 ft | 415 kts | 320° |
| 2026-04-26 15:03 | 40.84913 | 29.43810 | 37964 ft | 415 kts | 320° |
| 2026-04-26 15:03 | 40.89428 | 29.39039 | 37969 ft | 415 kts | 320° |
| 2026-04-26 15:04 | 40.93938 | 29.34264 | 37968 ft | 415 kts | 320° |
| 2026-04-26 15:04 | 40.98451 | 29.29477 | 37970 ft | 415 kts | 320° |
| 2026-04-26 15:05 | 41.02944 | 29.24701 | 37964 ft | 415 kts | 320° |
| 2026-04-26 15:05 | 41.07423 | 29.19932 | 37966 ft | 415 kts | 320° |
| 2026-04-26 15:06 | 41.11902 | 29.15156 | 37956 ft | 414 kts | 320° |
| 2026-04-26 15:06 | 41.16465 | 29.10473 | 37953 ft | 414 kts | 322° |
| 2026-04-26 15:07 | 41.23414 | 29.03698 | 37948 ft | 412 kts | 322° |
| 2026-04-26 15:07 | 41.28020 | 28.99173 | 37937 ft | 412 kts | 321° |
| 2026-04-26 15:08 | 41.32611 | 28.94631 | 37943 ft | 411 kts | 321° |
| 2026-04-26 15:08 | 41.37191 | 28.90084 | 37939 ft | 410 kts | 321° |
| 2026-04-26 15:09 | 41.41755 | 28.85543 | 37925 ft | 410 kts | 321° |
| 2026-04-26 15:09 | 41.46322 | 28.80991 | 37931 ft | 410 kts | 321° |
| 2026-04-26 15:10 | 41.50118 | 28.77201 | 37945 ft | 410 kts | 321° |
| 2026-04-26 15:10 | 41.55460 | 28.71860 | 37936 ft | 410 kts | 321° |
| 2026-04-26 15:11 | 41.60031 | 28.67279 | 37938 ft | 411 kts | 321° |
| 2026-04-26 15:11 | 41.64603 | 28.62689 | 37943 ft | 412 kts | 321° |
| 2026-04-26 15:12 | 41.69179 | 28.58087 | 37938 ft | 412 kts | 321° |
| 2026-04-26 15:12 | 41.73769 | 28.53463 | 37935 ft | 413 kts | 321° |
| 2026-04-26 15:13 | 41.78356 | 28.48833 | 37935 ft | 413 kts | 321° |
| 2026-04-26 15:13 | 41.82951 | 28.44186 | 37936 ft | 414 kts | 321° |
| 2026-04-26 15:14 | 41.87548 | 28.39530 | 37930 ft | 414 kts | 321° |
| 2026-04-26 15:14 | 41.92117 | 28.34892 | 37931 ft | 414 kts | 321° |
| 2026-04-26 15:15 | 41.96714 | 28.30218 | 37927 ft | 415 kts | 321° |
| 2026-04-26 15:15 | 42.01014 | 28.25039 | 37934 ft | 412 kts | 313° |
| 2026-04-26 15:16 | 42.05011 | 28.19510 | 37929 ft | 412 kts | 312° |
| 2026-04-26 15:16 | 42.09003 | 28.13969 | 37934 ft | 412 kts | 313° |
| 2026-04-26 15:17 | 42.12328 | 28.09375 | 37921 ft | 412 kts | 313° |
| 2026-04-26 15:17 | 42.16982 | 28.02954 | 37929 ft | 412 kts | 313° |
| 2026-04-26 15:18 | 42.20988 | 27.97424 | 37921 ft | 412 kts | 313° |
| 2026-04-26 15:18 | 42.24985 | 27.91895 | 37918 ft | 412 kts | 313° |
| 2026-04-26 15:19 | 42.28986 | 27.86350 | 37916 ft | 412 kts | 313° |
| 2026-04-26 15:19 | 42.32984 | 27.80799 | 37920 ft | 412 kts | 313° |
| 2026-04-26 15:20 | 42.36979 | 27.75241 | 37913 ft | 412 kts | 313° |
| 2026-04-26 15:20 | 42.40972 | 27.69673 | 37917 ft | 412 kts | 313° |
| 2026-04-26 15:21 | 42.44962 | 27.64100 | 37915 ft | 413 kts | 313° |
| 2026-04-26 15:21 | 42.48956 | 27.58511 | 37918 ft | 413 kts | 313° |
| 2026-04-26 15:22 | 42.52273 | 27.53860 | 37911 ft | 413 kts | 313° |
| 2026-04-26 15:22 | 42.56270 | 27.48246 | 37917 ft | 413 kts | 313° |
| 2026-04-26 15:23 | 42.60264 | 27.42625 | 37914 ft | 414 kts | 313° |
| 2026-04-26 15:23 | 42.64258 | 27.36993 | 37919 ft | 414 kts | 313° |
| 2026-04-26 15:24 | 42.68253 | 27.31349 | 37914 ft | 415 kts | 313° |
| 2026-04-26 15:24 | 42.72246 | 27.25697 | 37916 ft | 415 kts | 313° |
| 2026-04-26 15:25 | 42.76245 | 27.20024 | 37916 ft | 414 kts | 313° |
| 2026-04-26 15:25 | 42.80232 | 27.14356 | 37908 ft | 415 kts | 313° |
| 2026-04-26 15:26 | 42.84221 | 27.08675 | 37899 ft | 415 kts | 313° |
| 2026-04-26 15:26 | 42.88206 | 27.02989 | 37899 ft | 415 kts | 313° |
| 2026-04-26 15:27 | 42.92189 | 26.97293 | 37901 ft | 414 kts | 313° |
| 2026-04-26 15:27 | 42.96166 | 26.91597 | 37902 ft | 415 kts | 313° |
| 2026-04-26 15:28 | 43.00143 | 26.85886 | 37899 ft | 415 kts | 313° |
| 2026-04-26 15:28 | 43.04125 | 26.80158 | 37901 ft | 416 kts | 313° |
| 2026-04-26 15:29 | 43.08110 | 26.74414 | 37898 ft | 416 kts | 313° |
| 2026-04-26 15:30 | 43.16072 | 26.62904 | 37906 ft | 416 kts | 313° |
| 2026-04-26 15:30 | 43.20053 | 26.57130 | 37913 ft | 416 kts | 313° |
| 2026-04-26 15:31 | 43.26012 | 26.48466 | 37901 ft | 416 kts | 313° |
| 2026-04-26 15:32 | 43.31281 | 26.40784 | 37900 ft | 415 kts | 313° |
| 2026-04-26 15:32 | 43.35911 | 26.34016 | 37898 ft | 414 kts | 313° |
| 2026-04-26 15:33 | 43.39852 | 26.28243 | 37901 ft | 413 kts | 313° |
| 2026-04-26 15:33 | 43.43771 | 26.22489 | 37904 ft | 412 kts | 313° |
| 2026-04-26 15:34 | 43.47683 | 26.16735 | 37901 ft | 411 kts | 313° |
| 2026-04-26 15:34 | 43.51586 | 26.10981 | 37907 ft | 410 kts | 313° |
| 2026-04-26 15:35 | 43.55454 | 26.05269 | 37903 ft | 410 kts | 313° |
| 2026-04-26 15:35 | 43.59337 | 25.99521 | 37901 ft | 410 kts | 313° |
| 2026-04-26 15:36 | 43.63219 | 25.93765 | 37902 ft | 409 kts | 313° |
| 2026-04-26 15:36 | 43.67096 | 25.88004 | 37901 ft | 410 kts | 313° |
| 2026-04-26 15:37 | 43.70967 | 25.82239 | 37901 ft | 410 kts | 313° |
| 2026-04-26 15:37 | 43.74843 | 25.76456 | 37898 ft | 410 kts | 313° |
| 2026-04-26 15:38 | 43.78713 | 25.70670 | 37903 ft | 410 kts | 313° |
| 2026-04-26 15:38 | 43.82579 | 25.64878 | 37903 ft | 410 kts | 313° |
| 2026-04-26 15:39 | 43.86443 | 25.59075 | 37900 ft | 409 kts | 313° |
| 2026-04-26 15:39 | 43.89651 | 25.54251 | 37903 ft | 409 kts | 313° |
| 2026-04-26 15:40 | 43.94154 | 25.47462 | 37906 ft | 409 kts | 313° |
| 2026-04-26 15:40 | 43.97997 | 25.41659 | 37902 ft | 408 kts | 313° |
| 2026-04-26 15:41 | 44.01864 | 25.35907 | 37903 ft | 408 kts | 313° |
| 2026-04-26 15:41 | 44.05754 | 25.30165 | 37905 ft | 407 kts | 313° |
| 2026-04-26 15:42 | 44.09628 | 25.24432 | 37903 ft | 407 kts | 313° |
| 2026-04-26 15:42 | 44.13497 | 25.18683 | 37896 ft | 407 kts | 313° |
| 2026-04-26 15:43 | 44.17358 | 25.12931 | 37909 ft | 406 kts | 313° |
| 2026-04-26 15:44 | 44.23136 | 25.04297 | 37908 ft | 406 kts | 312° |
| 2026-04-26 15:44 | 44.28923 | 24.95624 | 37907 ft | 406 kts | 312° |
| 2026-04-26 15:45 | 44.34694 | 24.86947 | 37914 ft | 407 kts | 312° |
| 2026-04-26 15:46 | 44.40445 | 24.78274 | 37919 ft | 408 kts | 312° |
| 2026-04-26 15:46 | 44.43678 | 24.73386 | 37920 ft | 408 kts | 312° |
| 2026-04-26 15:47 | 44.50092 | 24.63664 | 37925 ft | 410 kts | 312° |
| 2026-04-26 15:48 | 44.53960 | 24.57784 | 37926 ft | 410 kts | 312° |
| 2026-04-26 15:48 | 44.57826 | 24.51897 | 37932 ft | 411 kts | 312° |
| 2026-04-26 15:49 | 44.61696 | 24.45989 | 37932 ft | 411 kts | 312° |
| 2026-04-26 15:49 | 44.65557 | 24.40084 | 37937 ft | 411 kts | 312° |
| 2026-04-26 15:50 | 44.69420 | 24.34162 | 37941 ft | 410 kts | 312° |
| 2026-04-26 15:50 | 44.73270 | 24.28248 | 37942 ft | 410 kts | 311° |
| 2026-04-26 15:51 | 44.77110 | 24.22336 | 37949 ft | 409 kts | 311° |
| 2026-04-26 15:51 | 44.80939 | 24.16430 | 37948 ft | 408 kts | 311° |
| 2026-04-26 15:52 | 44.84751 | 24.10536 | 37949 ft | 407 kts | 311° |
| 2026-04-26 15:52 | 44.88554 | 24.04645 | 37959 ft | 406 kts | 311° |
| 2026-04-26 15:53 | 44.92347 | 23.98756 | 37964 ft | 405 kts | 311° |
| 2026-04-26 15:53 | 44.96120 | 23.92885 | 37966 ft | 404 kts | 311° |
| 2026-04-26 15:54 | 44.99882 | 23.87020 | 37973 ft | 402 kts | 311° |
| 2026-04-26 15:54 | 45.03636 | 23.81155 | 37974 ft | 402 kts | 311° |
| 2026-04-26 15:55 | 45.07386 | 23.75283 | 37980 ft | 402 kts | 311° |
| 2026-04-26 15:55 | 45.11125 | 23.69417 | 37980 ft | 402 kts | 311° |
| 2026-04-26 15:56 | 45.14840 | 23.63576 | 37992 ft | 402 kts | 311° |
| 2026-04-26 15:56 | 45.18574 | 23.57691 | 37995 ft | 401 kts | 311° |
| 2026-04-26 15:57 | 45.22299 | 23.51810 | 38010 ft | 400 kts | 312° |
| 2026-04-26 15:57 | 45.26015 | 23.45930 | 38012 ft | 400 kts | 312° |
| 2026-04-26 15:58 | 45.29727 | 23.40045 | 38011 ft | 400 kts | 311° |
| 2026-04-26 15:58 | 45.33426 | 23.34168 | 38018 ft | 398 kts | 311° |
| 2026-04-26 15:59 | 45.37113 | 23.28296 | 38016 ft | 399 kts | 311° |
| 2026-04-26 15:59 | 45.40807 | 23.22401 | 38016 ft | 399 kts | 311° |
| 2026-04-26 16:00 | 45.44503 | 23.16491 | 38037 ft | 400 kts | 311° |
| 2026-04-26 16:00 | 45.48226 | 23.10523 | 38047 ft | 406 kts | 310° |
| 2026-04-26 16:01 | 45.51989 | 23.04478 | 38056 ft | 410 kts | 310° |
| 2026-04-26 16:01 | 45.55786 | 22.98366 | 38057 ft | 413 kts | 310° |
| 2026-04-26 16:02 | 45.59595 | 22.92221 | 38055 ft | 414 kts | 310° |
| 2026-04-26 16:02 | 45.63401 | 22.86070 | 38064 ft | 412 kts | 310° |
| 2026-04-26 16:03 | 45.67183 | 22.79941 | 38066 ft | 410 kts | 310° |
| 2026-04-26 16:03 | 45.70931 | 22.73855 | 38065 ft | 406 kts | 310° |
| 2026-04-26 16:04 | 45.74648 | 22.67804 | 38072 ft | 403 kts | 310° |
| 2026-04-26 16:04 | 45.78336 | 22.61789 | 38082 ft | 401 kts | 310° |
| 2026-04-26 16:05 | 45.81981 | 22.55829 | 38085 ft | 400 kts | 310° |
| 2026-04-26 16:05 | 45.85640 | 22.49836 | 38090 ft | 400 kts | 310° |
| 2026-04-26 16:06 | 45.89310 | 22.43809 | 38091 ft | 401 kts | 310° |
| 2026-04-26 16:06 | 45.92978 | 22.37774 | 38095 ft | 402 kts | 310° |
| 2026-04-26 16:07 | 45.96653 | 22.31713 | 38099 ft | 403 kts | 310° |
| 2026-04-26 16:07 | 46.00337 | 22.25626 | 38099 ft | 404 kts | 310° |
| 2026-04-26 16:08 | 46.03403 | 22.20547 | 38099 ft | 404 kts | 310° |
| 2026-04-26 16:08 | 46.07089 | 22.14431 | 38099 ft | 405 kts | 310° |
| 2026-04-26 16:09 | 46.10772 | 22.08307 | 38103 ft | 405 kts | 310° |
| 2026-04-26 16:09 | 46.14451 | 22.02174 | 38104 ft | 404 kts | 309° |
| 2026-04-26 16:10 | 46.18121 | 21.96044 | 38108 ft | 403 kts | 309° |
| 2026-04-26 16:10 | 46.21775 | 21.89927 | 38105 ft | 402 kts | 309° |
| 2026-04-26 16:11 | 46.25411 | 21.83826 | 38107 ft | 400 kts | 309° |
| 2026-04-26 16:11 | 46.29036 | 21.77731 | 38107 ft | 400 kts | 309° |
| 2026-04-26 16:12 | 46.32658 | 21.71626 | 38107 ft | 399 kts | 309° |
| 2026-04-26 16:12 | 46.38064 | 21.62488 | 38113 ft | 399 kts | 309° |
| 2026-04-26 16:13 | 46.41645 | 21.56419 | 38115 ft | 399 kts | 309° |
| 2026-04-26 16:13 | 46.45247 | 21.50301 | 38115 ft | 399 kts | 309° |
| 2026-04-26 16:14 | 46.48852 | 21.44164 | 38114 ft | 400 kts | 309° |
| 2026-04-26 16:15 | 46.54421 | 21.35107 | 38115 ft | 402 kts | 311° |
| 2026-04-26 16:15 | 46.58260 | 21.29202 | 38119 ft | 402 kts | 311° |
| 2026-04-26 16:16 | 46.64003 | 21.20281 | 38125 ft | 403 kts | 311° |
| 2026-04-26 16:16 | 46.67820 | 21.14292 | 38122 ft | 404 kts | 311° |
| 2026-04-26 16:17 | 46.71632 | 21.08287 | 38124 ft | 404 kts | 310° |
| 2026-04-26 16:17 | 46.75440 | 21.02272 | 38124 ft | 404 kts | 310° |
| 2026-04-26 16:18 | 46.81139 | 20.93248 | 38127 ft | 402 kts | 310° |
| 2026-04-26 16:19 | 46.86811 | 20.84236 | 38126 ft | 401 kts | 310° |
| 2026-04-26 16:20 | 46.92451 | 20.75244 | 38126 ft | 399 kts | 310° |
| 2026-04-26 16:20 | 46.98063 | 20.66267 | 38130 ft | 398 kts | 310° |
| 2026-04-26 16:21 | 47.01788 | 20.60293 | 38131 ft | 397 kts | 310° |
| 2026-04-26 16:21 | 47.05508 | 20.54312 | 38130 ft | 397 kts | 310° |
| 2026-04-26 16:22 | 47.09224 | 20.48325 | 38129 ft | 397 kts | 310° |
| 2026-04-26 16:22 | 47.12941 | 20.42322 | 38132 ft | 397 kts | 310° |
| 2026-04-26 16:23 | 47.16654 | 20.36313 | 38129 ft | 398 kts | 310° |
| 2026-04-26 16:23 | 47.20344 | 20.30326 | 38132 ft | 398 kts | 310° |
| 2026-04-26 16:24 | 47.24065 | 20.24276 | 38127 ft | 399 kts | 309° |
| 2026-04-26 16:24 | 47.27784 | 20.18217 | 38133 ft | 399 kts | 309° |
| 2026-04-26 16:25 | 47.31503 | 20.12144 | 38140 ft | 399 kts | 309° |
| 2026-04-26 16:25 | 47.35225 | 20.06052 | 38142 ft | 400 kts | 309° |
| 2026-04-26 16:26 | 47.38317 | 20.00980 | 38143 ft | 400 kts | 309° |
| 2026-04-26 16:26 | 47.42656 | 19.93847 | 38149 ft | 400 kts | 309° |
| 2026-04-26 16:27 | 47.46369 | 19.87728 | 38155 ft | 399 kts | 309° |
| 2026-04-26 16:27 | 47.50072 | 19.81611 | 38146 ft | 399 kts | 309° |
| 2026-04-26 16:28 | 47.53765 | 19.75497 | 38151 ft | 399 kts | 309° |
| 2026-04-26 16:28 | 47.57457 | 19.69371 | 38151 ft | 398 kts | 309° |
| 2026-04-26 16:29 | 47.61138 | 19.63248 | 38157 ft | 398 kts | 309° |
| 2026-04-26 16:29 | 47.64812 | 19.57124 | 38157 ft | 397 kts | 309° |
| 2026-04-26 16:30 | 47.68480 | 19.50995 | 38155 ft | 397 kts | 309° |
| 2026-04-26 16:30 | 47.72139 | 19.44868 | 38164 ft | 397 kts | 309° |
| 2026-04-26 16:31 | 47.75796 | 19.38729 | 38168 ft | 397 kts | 309° |
| 2026-04-26 16:31 | 47.79448 | 19.32584 | 38160 ft | 396 kts | 309° |
| 2026-04-26 16:32 | 47.82479 | 19.27474 | 38168 ft | 396 kts | 309° |
| 2026-04-26 16:32 | 47.86736 | 19.20279 | 38169 ft | 396 kts | 308° |
| 2026-04-26 16:33 | 47.90374 | 19.14117 | 38171 ft | 396 kts | 308° |
| 2026-04-26 16:33 | 47.94008 | 19.07945 | 38182 ft | 396 kts | 308° |
| 2026-04-26 16:34 | 47.97642 | 19.01760 | 38181 ft | 396 kts | 308° |
| 2026-04-26 16:34 | 48.01250 | 18.95606 | 38179 ft | 397 kts | 308° |
| 2026-04-26 16:35 | 48.04906 | 18.89355 | 38184 ft | 397 kts | 308° |
| 2026-04-26 16:35 | 48.06727 | 18.86234 | 37835 ft | 402 kts | 308° |
| 2026-04-26 16:35 | 48.08558 | 18.83094 | 37291 ft | 399 kts | 308° |
| 2026-04-26 16:36 | 48.10349 | 18.80021 | 36704 ft | 396 kts | 308° |
| 2026-04-26 16:36 | 48.12160 | 18.76910 | 36033 ft | 395 kts | 308° |
| 2026-04-26 16:36 | 48.13962 | 18.73809 | 35312 ft | 395 kts | 308° |
| 2026-04-26 16:36 | 48.15767 | 18.70698 | 34580 ft | 396 kts | 308° |
| 2026-04-26 16:37 | 48.17575 | 18.67578 | 33766 ft | 397 kts | 308° |
| 2026-04-26 16:37 | 48.19380 | 18.64462 | 33166 ft | 393 kts | 308° |
| 2026-04-26 16:37 | 48.21159 | 18.61388 | 32573 ft | 388 kts | 308° |
| 2026-04-26 16:37 | 48.22917 | 18.58346 | 32024 ft | 384 kts | 308° |
| 2026-04-26 16:38 | 48.24658 | 18.55331 | 31460 ft | 380 kts | 308° |
| 2026-04-26 16:38 | 48.26372 | 18.52359 | 30931 ft | 376 kts | 308° |
| 2026-04-26 16:38 | 48.28073 | 18.49403 | 30401 ft | 372 kts | 308° |
| 2026-04-26 16:38 | 48.29756 | 18.46477 | 29808 ft | 368 kts | 308° |
| 2026-04-26 16:39 | 48.31421 | 18.43580 | 29223 ft | 364 kts | 308° |
| 2026-04-26 16:39 | 48.33061 | 18.40721 | 28683 ft | 359 kts | 308° |
| 2026-04-26 16:39 | 48.34683 | 18.37892 | 28130 ft | 355 kts | 308° |
| 2026-04-26 16:39 | 48.36286 | 18.35093 | 27591 ft | 351 kts | 308° |
| 2026-04-26 16:40 | 48.37873 | 18.32317 | 27044 ft | 348 kts | 308° |
| 2026-04-26 16:40 | 48.39445 | 18.29565 | 26510 ft | 345 kts | 308° |
| 2026-04-26 16:40 | 48.41007 | 18.26829 | 25984 ft | 343 kts | 308° |
| 2026-04-26 16:40 | 48.42551 | 18.24120 | 25470 ft | 340 kts | 308° |
| 2026-04-26 16:41 | 48.44089 | 18.21421 | 24947 ft | 338 kts | 308° |
| 2026-04-26 16:41 | 48.45615 | 18.18738 | 24431 ft | 336 kts | 308° |
| 2026-04-26 16:41 | 48.47130 | 18.16073 | 23911 ft | 335 kts | 308° |
| 2026-04-26 16:41 | 48.48646 | 18.13403 | 23316 ft | 334 kts | 308° |
| 2026-04-26 16:42 | 48.50146 | 18.10759 | 22749 ft | 331 kts | 308° |
| 2026-04-26 16:42 | 48.51638 | 18.08128 | 22222 ft | 328 kts | 308° |
| 2026-04-26 16:42 | 48.53110 | 18.05528 | 21697 ft | 325 kts | 308° |
| 2026-04-26 16:42 | 48.54576 | 18.02936 | 21184 ft | 323 kts | 309° |
| 2026-04-26 16:43 | 48.56007 | 18.00404 | 20686 ft | 320 kts | 309° |
| 2026-04-26 16:43 | 48.57475 | 17.97836 | 19923 ft | 326 kts | 309° |
| 2026-04-26 16:43 | 48.58963 | 17.95258 | 19326 ft | 326 kts | 310° |
| 2026-04-26 16:43 | 48.60455 | 17.92678 | 18789 ft | 325 kts | 310° |
| 2026-04-26 16:44 | 48.61937 | 17.90113 | 18237 ft | 324 kts | 310° |
| 2026-04-26 16:44 | 48.63411 | 17.87557 | 17676 ft | 321 kts | 310° |
| 2026-04-26 16:44 | 48.64876 | 17.85013 | 17142 ft | 319 kts | 310° |
| 2026-04-26 16:44 | 48.66320 | 17.82500 | 16644 ft | 315 kts | 310° |
| 2026-04-26 16:45 | 48.67752 | 17.80004 | 16136 ft | 313 kts | 310° |
| 2026-04-26 16:45 | 48.69172 | 17.77526 | 15644 ft | 310 kts | 310° |
| 2026-04-26 16:45 | 48.70577 | 17.75072 | 15147 ft | 308 kts | 310° |
| 2026-04-26 16:45 | 48.71975 | 17.72628 | 14679 ft | 306 kts | 310° |
| 2026-04-26 16:46 | 48.73362 | 17.70200 | 14191 ft | 304 kts | 310° |
| 2026-04-26 16:46 | 48.74742 | 17.67780 | 13666 ft | 303 kts | 310° |
| 2026-04-26 16:46 | 48.76113 | 17.65377 | 13152 ft | 301 kts | 310° |
| 2026-04-26 16:46 | 48.77476 | 17.62985 | 12652 ft | 298 kts | 310° |
| 2026-04-26 16:47 | 48.78823 | 17.60619 | 12172 ft | 296 kts | 310° |
| 2026-04-26 16:47 | 48.80162 | 17.58263 | 11700 ft | 293 kts | 310° |
| 2026-04-26 16:47 | 48.81489 | 17.55927 | 11227 ft | 291 kts | 310° |
| 2026-04-26 16:47 | 48.82804 | 17.53611 | 10765 ft | 289 kts | 310° |
| 2026-04-26 16:48 | 48.84098 | 17.51330 | 10560 ft | 280 kts | 310° |
| 2026-04-26 16:48 | 48.85341 | 17.49137 | 10418 ft | 268 kts | 309° |
| 2026-04-26 16:48 | 48.86540 | 17.47021 | 10309 ft | 263 kts | 310° |
| 2026-04-26 16:48 | 48.87726 | 17.44923 | 10098 ft | 264 kts | 309° |
| 2026-04-26 16:49 | 48.88930 | 17.42791 | 9743 ft | 266 kts | 309° |
| 2026-04-26 16:49 | 48.90127 | 17.40672 | 9381 ft | 263 kts | 309° |
| 2026-04-26 16:49 | 48.91308 | 17.38580 | 9043 ft | 260 kts | 309° |
| 2026-04-26 16:49 | 48.92478 | 17.36504 | 8708 ft | 257 kts | 310° |
| 2026-04-26 16:50 | 48.93638 | 17.34446 | 8381 ft | 255 kts | 309° |
| 2026-04-26 16:50 | 48.94785 | 17.32408 | 8044 ft | 253 kts | 310° |
| 2026-04-26 16:50 | 48.95914 | 17.30402 | 7727 ft | 252 kts | 310° |
| 2026-04-26 16:50 | 48.97047 | 17.28386 | 7402 ft | 251 kts | 310° |
| 2026-04-26 16:51 | 48.98154 | 17.26417 | 7092 ft | 251 kts | 310° |
| 2026-04-26 16:51 | 48.99287 | 17.24397 | 6755 ft | 251 kts | 310° |
| 2026-04-26 16:51 | 49.00436 | 17.22349 | 6436 ft | 251 kts | 309° |
| 2026-04-26 16:51 | 49.01568 | 17.20326 | 6100 ft | 251 kts | 310° |
| 2026-04-26 16:52 | 49.02686 | 17.18331 | 5782 ft | 251 kts | 310° |
| 2026-04-26 16:52 | 49.03068 | 17.17649 | 5659 ft | 251 kts | 310° |
| 2026-04-26 16:52 | 49.04920 | 17.14337 | 5439 ft | 246 kts | 310° |
| 2026-04-26 16:52 | 49.06038 | 17.12336 | 5337 ft | 249 kts | 310° |
| 2026-04-26 16:53 | 49.07164 | 17.10319 | 5230 ft | 251 kts | 310° |
| 2026-04-26 16:53 | 49.08301 | 17.08282 | 5112 ft | 252 kts | 310° |
| 2026-04-26 16:53 | 49.09438 | 17.06243 | 4999 ft | 253 kts | 310° |
| 2026-04-26 16:53 | 49.10581 | 17.04192 | 4860 ft | 255 kts | 310° |
| 2026-04-26 16:54 | 49.11749 | 17.02093 | 4414 ft | 261 kts | 310° |
| 2026-04-26 16:54 | 49.12662 | 16.99751 | 4068 ft | 256 kts | 284° |
| 2026-04-26 16:54 | 49.12785 | 16.97141 | 3859 ft | 237 kts | 274° |
| 2026-04-26 16:54 | 49.12925 | 16.94729 | 3597 ft | 221 kts | 279° |
| 2026-04-26 16:55 | 49.13125 | 16.92488 | 3360 ft | 205 kts | 280° |
| 2026-04-26 16:55 | 49.13312 | 16.90396 | 3167 ft | 196 kts | 280° |
| 2026-04-26 16:55 | 49.13441 | 16.89053 | 3086 ft | 188 kts | 281° |
| 2026-04-26 16:55 | 49.13669 | 16.86527 | 2981 ft | 172 kts | 280° |
| 2026-04-26 16:56 | 49.13914 | 16.83607 | 2670 ft | 160 kts | 280° |
| 2026-04-26 16:56 | 49.14053 | 16.81993 | 2473 ft | 145 kts | 280° |
| 2026-04-26 16:56 | 49.14171 | 16.80569 | 2250 ft | 129 kts | 279° |
| 2026-04-26 16:57 | 49.14269 | 16.79238 | 2073 ft | 127 kts | 279° |
| 2026-04-26 16:57 | 49.14383 | 16.77887 | 1862 ft | 128 kts | 285° |
| 2026-04-26 16:57 | 49.14626 | 16.75159 | 1421 ft | 135 kts | 282° |
| 2026-04-26 16:58 | 49.14740 | 16.73765 | 1129 ft | 132 kts | 286° |
| 2026-04-26 16:58 | 49.14829 | 16.72851 | 1055 ft | 133 kts | 285° |
| 2026-04-26 16:58 | 49.15102 | 16.69766 | 804 ft | 84 kts | 277° |
| 2026-04-26 16:59 | 49.15142 | 16.69298 | 805 ft | 13 kts | 277° |
| 2026-04-26 16:59 | 49.15212 | 16.69226 | 805 ft | 7 kts | 5° |
| 2026-04-26 17:00 | 49.15302 | 16.69244 | 807 ft | 7 kts | 7° |
| 2026-04-26 17:00 | 49.15345 | 16.69139 | 807 ft | 8 kts | 278° |
| 2026-04-26 17:00 | 49.15352 | 16.69053 | 807 ft | 9 kts | 277° |
| 2026-04-26 17:01 | 49.15359 | 16.68967 | 807 ft | 7 kts | 278° |
| 2026-04-26 17:01 | 49.15397 | 16.68943 | 807 ft | 6 kts | 22° |
| 2026-04-26 17:01 | 49.15405 | 16.68998 | 807 ft | 6 kts | 96° |
| 2026-04-26 17:01 | 49.15400 | 16.69063 | 807 ft | 7 kts | 96° |
| 2026-04-26 17:02 | 49.15394 | 16.69139 | 807 ft | 8 kts | 97° |
| 2026-04-26 17:02 | 49.15389 | 16.69206 | 809 ft | 3 kts | 97° |
| 2026-04-26 17:02 | 49.15387 | 16.69235 | 809 ft | 1 kts | 97° |
| 2026-04-26 17:02 | 49.15380 | 16.69244 | 809 ft | 1 kts | 140° |
| 2026-04-26 17:03 | 49.15372 | 16.69242 | 808 ft | 2 kts | 185° |
| 2026-04-26 17:03 | 49.15370 | 16.69241 | 808 ft | 0 kts | 186° |